Time;durP1;ratioP1;P1;durP2;ratioP2;P2;SDS_P1;SDS_P2;PMS_P1;PMS_P2;Temp;Humidity;BMP_temperature;BMP_pressure;BME280_temperature;BME280_humidity;BME280_pressure;Samples;Min_cycle;Max_cycle;Signal;HPM_P1;HPM_P2
2022/09/03 00:01:23;;;;;;;6.82;5.03;;;;;;;20.52;100.00;99778.56;5015373;28;20033;-86
2022/09/03 00:03:56;;;;;;;9.35;4.70;;;;;;;20.35;100.00;99775.25;5006747;28;20041;-86
2022/09/03 00:06:37;;;;;;;5.85;5.03;;;;;;;20.30;100.00;99774.94;5015201;28;20108;-86
2022/09/03 00:09:11;;;;;;;7.03;5.07;;;;;;;20.20;100.00;99773.41;5013967;28;20380;-86
2022/09/03 00:11:54;;;;;;;6.75;5.70;;;;;;;20.01;100.00;99773.94;5014051;28;20025;-86
2022/09/03 00:14:25;;;;;;;7.97;5.50;;;;;;;19.80;100.00;99772.75;5015392;28;20353;-86
2022/09/03 00:17:03;;;;;;;7.70;5.30;;;;;;;19.83;100.00;99781.41;5014426;28;20042;-85
2022/09/03 00:19:33;;;;;;;6.72;5.32;;;;;;;19.46;100.00;99777.69;5007503;28;20432;-86
2022/09/03 00:22:10;;;;;;;7.78;5.53;;;;;;;19.52;100.00;99779.63;5014507;28;20030;-86
2022/09/03 00:24:39;;;;;;;7.00;6.28;;;;;;;19.23;100.00;99781.13;5015079;28;20493;-86
2022/09/03 00:27:11;;;;;;;10.07;6.30;;;;;;;19.24;100.00;99779.31;5013608;28;20030;-86
2022/09/03 00:29:45;;;;;;;7.32;5.15;;;;;;;19.37;100.00;99767.09;5008906;28;20518;-85
2022/09/03 00:32:17;;;;;;;8.20;6.07;;;;;;;19.38;100.00;99767.91;5014494;28;20300;-86
2022/09/03 00:34:48;;;;;;;9.25;5.63;;;;;;;19.40;100.00;99766.72;4996188;28;20033;-86
2022/09/03 00:37:13;;;;;;;6.60;5.43;;;;;;;19.41;100.00;99771.06;5012968;28;20499;-86
2022/09/03 00:39:38;;;;;;;7.93;6.05;;;;;;;19.25;100.00;99767.66;5014655;28;20041;-86
2022/09/03 00:42:06;;;;;;;8.15;6.28;;;;;;;19.05;100.00;99768.09;5014097;28;20029;-86
2022/09/03 00:44:38;;;;;;;10.45;6.65;;;;;;;18.91;100.00;99772.34;5014163;28;20038;-86
2022/09/03 00:47:37;;;;;;;6.53;5.93;;;;;;;19.07;100.00;99760.78;5014007;28;20029;-86
2022/09/03 00:50:08;;;;;;;5.65;4.95;;;;;;;19.08;100.00;99767.78;5011564;28;20041;-85
2022/09/03 00:52:52;;;;;;;8.75;6.50;;;;;;;19.02;100.00;99756.00;5013905;28;20057;-86
2022/09/03 00:55:46;;;;;;;7.25;5.38;;;;;;;19.01;100.00;99759.63;5014476;28;20357;-86
2022/09/03 00:58:30;;;;;;;7.78;5.70;;;;;;;18.98;100.00;99760.00;5013753;28;20025;-85
2022/09/03 01:00:55;;;;;;;10.60;5.38;;;;;;;18.93;100.00;99759.69;5013913;28;20491;-86
2022/09/03 01:03:50;;;;;;;6.60;5.90;;;;;;;18.81;100.00;99771.72;5011376;28;20029;-86
2022/09/03 01:06:32;;;;;;;9.60;6.15;;;;;;;18.54;100.00;99765.84;5002755;28;20066;-86
2022/09/03 01:09:15;;;;;;;;;;;;;;;18.64;100.00;99765.59;5014464;28;20488;-86
2022/09/03 01:12:12;;;;;;;9.82;6.40;;;;;;;18.83;100.00;99757.25;5014529;28;19920;-85
2022/09/03 01:14:51;;;;;;;8.85;6.78;;;;;;;18.93;100.00;99749.03;5014152;28;20030;-86
2022/09/03 01:17:19;;;;;;;9.73;6.10;;;;;;;18.87;100.00;99755.06;5012219;28;20038;-86
2022/09/03 01:20:13;;;;;;;8.40;6.43;;;;;;;18.89;100.00;99753.06;4996154;28;20395;-85
2022/09/03 01:22:56;;;;;;;6.43;5.20;;;;;;;18.89;100.00;99758.38;5011882;28;20049;-85
2022/09/03 01:25:39;;;;;;;6.75;6.05;;;;;;;18.86;100.00;99752.56;5014052;28;20026;-85
2022/09/03 01:28:41;;;;;;;8.77;6.40;;;;;;;18.75;100.00;99753.78;5012596;28;20033;-85
2022/09/03 01:31:27;;;;;;;8.20;7.13;;;;;;;18.62;100.00;99743.66;5013600;28;20105;-85
2022/09/03 01:34:04;;;;;;;8.60;5.80;;;;;;;18.67;100.00;99745.84;5013239;28;20034;-85
2022/09/03 01:36:46;;;;;;;8.60;6.85;;;;;;;18.57;100.00;99744.19;4999135;28;20041;-85
2022/09/03 01:39:23;;;;;;;9.02;7.18;;;;;;;18.69;100.00;99754.47;4994200;28;20133;-85
2022/09/03 01:42:28;;;;;;;7.97;7.18;;;;;;;18.69;100.00;99754.47;5004771;28;20472;-85
2022/09/03 01:45:20;;;;;;;9.82;7.05;;;;;;;18.71;100.00;99747.97;4977105;28;20038;-85
2022/09/03 01:48:01;;;;;;;9.98;8.98;;;;;;;18.27;100.00;99759.09;5013319;28;20034;-85
2022/09/03 01:50:43;;;;;;;10.00;8.52;;;;;;;18.25;100.00;99755.78;5010625;28;20108;-85
2022/09/03 01:53:24;;;;;;;11.10;8.35;;;;;;;18.20;100.00;99758.91;5012643;28;20818;-84
2022/09/03 01:56:19;;;;;;;12.10;9.43;;;;;;;18.22;100.00;99756.91;5013326;28;20064;-85
2022/09/03 01:59:16;;;;;;;9.15;8.15;;;;;;;18.21;100.00;99749.97;4977473;28;20484;-85
2022/09/03 02:01:55;;;;;;;10.63;8.65;;;;;;;18.18;100.00;99750.28;5009593;28;20439;-85
2022/09/03 02:04:23;;;;;;;10.10;8.73;;;;;;;18.18;100.00;99755.59;5011625;28;20030;-85
2022/09/03 02:06:50;;;;;;;11.30;8.95;;;;;;;18.22;100.00;99751.59;5011413;28;20365;-85
2022/09/03 02:09:16;;;;;;;10.07;7.97;;;;;;;18.21;100.00;99755.28;5002618;28;20030;-85
2022/09/03 02:11:45;;;;;;;11.60;9.30;;;;;;;18.14;100.00;99750.81;4992427;28;20038;-85
2022/09/03 02:14:12;;;;;;;10.50;7.90;;;;;;;18.10;100.00;99747.66;4993646;28;20384;-85
2022/09/03 02:16:38;;;;;;;10.05;8.43;;;;;;;18.12;100.00;99750.97;4997734;28;20030;-85
2022/09/03 02:19:10;;;;;;;18.08;11.77;;;;;;;18.16;100.00;99736.34;5000719;28;20038;-85
2022/09/03 02:21:39;;;;;;;14.07;10.25;;;;;;;18.21;100.00;99735.84;4993307;28;20030;-85
2022/09/03 02:24:07;;;;;;;18.23;14.30;;;;;;;17.79;100.00;99740.38;5000708;28;20028;-84
2022/09/03 02:26:33;;;;;;;15.75;12.60;;;;;;;17.71;100.00;99743.00;4994358;28;20034;-85
2022/09/03 02:29:01;;;;;;;12.15;10.95;;;;;;;17.76;100.00;99735.38;5011971;28;20030;-86
2022/09/03 02:31:27;;;;;;;12.52;10.27;;;;;;;17.86;100.00;99734.44;5012353;28;20030;-86
2022/09/03 02:33:54;;;;;;;11.93;10.52;;;;;;;17.88;100.00;99727.13;5012276;28;20104;-86
2022/09/03 02:36:26;;;;;;;14.23;11.52;;;;;;;17.88;100.00;99735.09;5012579;28;20144;-86
2022/09/03 02:38:52;;;;;;;;;;;;;;;17.76;100.00;99740.69;5009833;28;20061;-85
2022/09/03 02:41:17;;;;;;;15.98;12.38;;;;;;;17.89;100.00;99742.03;4993625;28;19972;-86
2022/09/03 02:44:01;;;;;;;19.42;14.15;;;;;;;18.06;100.00;99751.66;5002756;28;20026;-86
2022/09/03 02:46:49;;;;;;;16.52;14.25;;;;;;;17.94;100.00;99748.50;5012616;28;20026;-85
2022/09/03 02:49:14;;;;;;;19.83;16.52;;;;;;;18.14;100.00;99750.81;5011281;28;20030;-86
2022/09/03 02:51:43;;;;;;;20.58;16.35;;;;;;;18.32;100.00;99750.59;5012047;28;20545;-85
2022/09/03 02:54:10;;;;;;;22.92;17.45;;;;;;;18.53;100.00;99750.03;5010047;28;20100;-86
2022/09/03 02:56:36;;;;;;;29.88;21.58;;;;;;;18.66;100.00;99741.50;4995814;28;20023;-86
2022/09/03 02:59:06;;;;;;;33.65;23.85;;;;;;;18.75;100.00;99740.47;5011700;28;20083;-85
2022/09/03 03:01:32;;;;;;;36.42;23.85;;;;;;;18.96;100.00;99739.91;5012138;28;20029;-86
2022/09/03 03:03:58;;;;;;;31.75;21.35;;;;;;;19.10;100.00;99738.34;5008254;28;20025;-86
2022/09/03 03:06:24;;;;;;;35.53;22.10;;;;;;;18.98;100.00;99736.06;5011925;28;20251;-86
2022/09/03 03:08:50;;;;;;;35.10;21.85;;;;;;;19.11;100.00;99750.63;5012268;28;20533;-86
2022/09/03 03:11:17;;;;;;;33.38;21.50;;;;;;;19.18;100.00;99748.91;5012149;28;20153;-86
2022/09/03 03:13:44;;;;;;;33.53;20.95;;;;;;;19.21;100.00;99743.22;5008907;28;20392;-86
2022/09/03 03:16:10;;;;;;;31.92;21.77;;;;;;;19.29;100.00;99745.81;5011768;28;20037;-86
2022/09/03 03:18:35;;;;;;;38.95;24.95;;;;;;;19.33;100.00;99738.31;5010347;28;20034;-85
2022/09/03 03:21:06;;;;;;;35.38;23.42;;;;;;;19.32;100.00;99737.50;5012190;28;20037;-86
2022/09/03 03:23:32;;;;;;;33.28;22.20;;;;;;;19.17;100.00;99744.59;5011947;28;20025;-86
2022/09/03 03:26:02;;;;;;;34.55;22.17;;;;;;;19.38;100.00;99739.44;5011613;28;20026;-86
2022/09/03 03:28:27;;;;;;;31.35;22.67;;;;;;;19.39;100.00;99741.13;5004336;28;20038;-86
2022/09/03 03:30:53;;;;;;;36.92;21.52;;;;;;;19.45;100.00;99733.41;5011587;28;20120;-86
2022/09/03 03:33:18;;;;;;;28.50;20.02;;;;;;;19.53;100.00;99736.00;5011491;28;20387;-86
2022/09/03 03:35:44;;;;;;;33.53;21.65;;;;;;;19.54;100.00;99729.69;5011016;28;20018;-85
2022/09/03 03:38:09;;;;;;;37.30;24.70;;;;;;;19.58;100.00;99734.47;5011490;28;20076;-85
2022/09/03 03:40:37;;;;;;;32.97;22.77;;;;;;;19.60;100.00;99734.28;5011480;28;20030;-86
2022/09/03 03:43:02;;;;;;;33.28;22.92;;;;;;;19.65;100.00;99731.09;5005724;28;20026;-86
2022/09/03 03:45:28;;;;;;;39.95;25.13;;;;;;;19.67;100.00;99734.38;5007294;28;20029;-85
2022/09/03 03:47:58;;;;;;;32.67;22.80;;;;;;;19.77;100.00;99730.50;5011059;28;20049;-85
2022/09/03 03:50:23;;;;;;;39.00;23.52;;;;;;;19.76;100.00;99730.69;5011441;28;20084;-86
2022/09/03 03:52:48;;;;;;;33.05;21.52;;;;;;;19.80;100.00;99729.31;5010314;28;20022;-86
2022/09/03 03:55:14;;;;;;;31.10;21.52;;;;;;;19.85;100.00;99734.13;5011736;28;20421;-86
2022/09/03 03:57:39;;;;;;;41.30;25.55;;;;;;;19.89;100.00;99727.41;5008935;28;20496;-85
2022/09/03 04:00:05;;;;;;;36.90;23.60;;;;;;;19.89;100.00;99733.56;4993052;28;20508;-86
2022/09/03 04:02:30;;;;;;;33.90;23.98;;;;;;;19.89;100.00;99730.09;5010852;28;20033;-86
2022/09/03 04:04:56;;;;;;;40.55;25.83;;;;;;;19.90;100.00;99729.06;5010926;28;20026;-85
2022/09/03 04:07:21;;;;;;;36.25;22.90;;;;;;;19.99;100.00;99727.97;5009655;28;20030;-86
2022/09/03 04:09:48;;;;;;;42.38;24.70;;;;;;;19.84;100.00;99732.44;5011252;28;20443;-86
2022/09/03 04:12:13;;;;;;;37.88;24.10;;;;;;;19.68;100.00;99731.56;5011350;28;20119;-85
2022/09/03 04:14:38;;;;;;;33.25;21.65;;;;;;;19.74;100.00;99732.72;4995902;28;20062;-86
2022/09/03 04:17:04;;;;;;;33.67;23.25;;;;;;;19.80;100.00;99719.47;4992012;28;20050;-85
2022/09/03 04:19:29;;;;;;;32.58;22.02;;;;;;;19.75;100.00;99716.56;5010747;28;20065;-86
2022/09/03 04:21:55;;;;;;;39.33;21.67;;;;;;;19.73;100.00;99718.56;5011708;28;20383;-86
2022/09/03 04:24:20;;;;;;;32.03;20.27;;;;;;;19.77;100.00;99717.19;5010848;28;20022;-86
2022/09/03 04:26:46;;;;;;;41.78;23.02;;;;;;;19.82;100.00;99713.97;5012271;28;20042;-86
2022/09/03 04:29:11;;;;;;;31.75;21.30;;;;;;;19.79;100.00;99707.19;5013374;28;20037;-86
2022/09/03 04:31:37;;;;;;;32.40;22.40;;;;;;;19.67;100.00;99703.28;5013311;28;20034;-86
2022/09/03 04:34:05;;;;;;;32.30;21.77;;;;;;;19.64;100.00;99710.81;5014612;28;20028;-86
2022/09/03 04:36:32;;;;;;;38.22;22.85;;;;;;;19.74;100.00;99704.22;5013710;28;20030;-86
2022/09/03 04:38:59;;;;;;;38.90;23.80;;;;;;;19.79;100.00;99695.72;5013594;28;20427;-86
2022/09/03 04:41:26;;;;;;;38.63;23.48;;;;;;;19.58;100.00;99693.69;5014257;28;20041;-86
2022/09/03 04:43:54;;;;;;;36.55;22.55;;;;;;;19.66;100.00;99698.94;5004190;28;20036;-86
2022/09/03 04:46:21;;;;;;;32.17;20.83;;;;;;;19.76;100.00;99691.56;5014485;28;20373;-86
2022/09/03 04:48:51;;;;;;;36.30;23.92;;;;;;;19.67;100.00;99697.97;5014078;28;20120;-86
2022/09/03 04:51:22;;;;;;;36.83;21.95;;;;;;;19.58;100.00;99701.69;5013806;28;20496;-86
2022/09/03 04:53:53;;;;;;;35.45;22.13;;;;;;;19.74;100.00;99690.91;5014714;28;20030;-86
2022/09/03 04:56:24;;;;;;;37.03;21.98;;;;;;;19.65;100.00;99696.47;5014259;28;20108;-85
2022/09/03 04:58:54;;;;;;;32.85;20.60;;;;;;;19.78;100.00;99694.88;5011548;28;20042;-86
2022/09/03 05:01:23;;;;;;;36.78;22.23;;;;;;;19.69;100.00;99701.25;5014200;28;20385;-86
2022/09/03 05:03:51;;;;;;;31.25;21.08;;;;;;;19.86;100.00;99701.13;5014359;28;20022;-86
2022/09/03 05:06:16;;;;;;;34.33;21.48;;;;;;;19.84;100.00;99703.16;5013707;28;20169;-86
2022/09/03 05:08:49;;;;;;;35.72;21.95;;;;;;;19.70;100.00;99697.59;5013223;28;20108;-86
2022/09/03 05:11:15;;;;;;;31.83;21.08;;;;;;;19.72;100.00;99695.59;5013889;28;20034;-85
2022/09/03 05:13:41;;;;;;;32.40;20.90;;;;;;;19.77;100.00;99690.56;5007003;28;20034;-86
2022/09/03 05:16:09;;;;;;;31.58;21.02;;;;;;;19.84;100.00;99698.66;4998916;28;20114;-86
2022/09/03 05:18:35;;;;;;;30.65;20.60;;;;;;;19.86;100.00;99693.13;5014320;28;20022;-86
2022/09/03 05:21:02;;;;;;;32.78;22.45;;;;;;;19.66;100.00;99687.47;5013750;28;20022;-86
2022/09/03 05:23:29;;;;;;;29.45;20.80;;;;;;;19.77;100.00;99693.22;5013729;28;20041;-86
2022/09/03 05:26:00;;;;;;;34.75;21.83;;;;;;;19.75;100.00;99692.59;5013804;28;20022;-86
2022/09/03 05:28:27;;;;;;;26.83;20.25;;;;;;;19.91;100.00;99688.09;5010464;28;20034;-86
2022/09/03 05:31:04;;;;;;;28.40;21.63;;;;;;;19.74;100.00;99690.91;5007754;28;20026;-85
2022/09/03 05:33:41;;;;;;;28.73;20.90;;;;;;;19.86;100.00;99685.16;4995936;28;20034;-85
2022/09/03 05:36:12;;;;;;;29.65;21.50;;;;;;;19.85;100.00;99689.66;5011687;28;20454;-85
2022/09/03 05:38:38;;;;;;;28.60;20.67;;;;;;;19.87;100.00;99692.16;5013289;28;20487;-85
2022/09/03 05:41:06;;;;;;;23.42;18.50;;;;;;;19.73;100.00;99689.28;5013663;28;20026;-85
2022/09/03 05:43:32;;;;;;;25.27;18.92;;;;;;;19.79;100.00;99690.38;5013538;28;20521;-86
2022/09/03 05:46:01;;;;;;;28.45;21.13;;;;;;;19.83;100.00;99694.34;5012482;28;20038;-86
2022/09/03 05:48:28;;;;;;;29.95;22.17;;;;;;;19.72;100.00;99684.94;5001072;28;20058;-86
2022/09/03 05:51:02;;;;;;;26.35;21.08;;;;;;;19.70;100.00;99686.94;5012841;28;20037;-86
2022/09/03 05:53:28;;;;;;;24.17;20.25;;;;;;;19.65;100.00;99688.47;5013576;28;20030;-87
2022/09/03 05:55:56;;;;;;;25.25;20.05;;;;;;;19.62;100.00;99689.66;5012943;28;20490;-86
2022/09/03 05:58:21;;;;;;;27.55;20.48;;;;;;;19.62;100.00;99695.00;5012553;28;20037;-86
2022/09/03 06:00:46;;;;;;;24.75;20.08;;;;;;;19.69;100.00;99698.59;5005560;28;20025;-86
2022/09/03 06:03:12;;;;;;;23.63;19.55;;;;;;;19.83;100.00;99704.16;5013197;28;20064;-86
2022/09/03 06:05:37;;;;;;;23.05;19.63;;;;;;;19.83;100.00;99702.34;5007023;28;20022;-86
2022/09/03 06:08:02;;;;;;;26.35;20.15;;;;;;;19.70;100.00;99702.09;5012102;28;20482;-86
2022/09/03 06:10:28;;;;;;;22.48;18.45;;;;;;;19.81;100.00;99712.34;5012703;28;20104;-86
2022/09/03 06:12:54;;;;;;;23.60;19.08;;;;;;;19.76;100.00;99715.53;5012558;28;20488;-86
2022/09/03 06:15:19;;;;;;;22.20;19.05;;;;;;;19.95;100.00;99716.84;5012451;28;20018;-85
2022/09/03 06:17:44;;;;;;;22.83;18.05;;;;;;;20.09;100.00;99720.53;5012250;28;20030;-86
2022/09/03 06:20:10;;;;;;;22.23;17.38;;;;;;;20.10;100.00;99724.88;5011262;28;20034;-85
2022/09/03 06:22:35;;;;;;;23.35;18.10;;;;;;;20.04;100.00;99717.59;5012630;28;20072;-85
2022/09/03 06:25:00;;;;;;;21.30;17.38;;;;;;;20.14;100.00;99714.66;5013002;28;20029;-86
2022/09/03 06:27:27;;;;;;;20.73;15.43;;;;;;;20.37;100.00;99706.56;5010423;28;20395;-86
2022/09/03 06:29:53;;;;;;;19.92;17.45;;;;;;;20.26;100.00;99723.03;5005980;28;20030;-85
2022/09/03 06:32:19;;;;;;;20.52;18.20;;;;;;;20.35;100.00;99720.09;5002676;28;20361;-87
2022/09/03 06:34:44;;;;;;;18.45;16.42;;;;;;;20.44;100.00;99726.16;5011237;28;20486;-86
2022/09/03 06:37:09;;;;;;;23.15;17.17;;;;;;;20.57;100.00;99720.97;5012511;28;20373;-86
2022/09/03 06:39:35;;;;;;;21.25;16.23;;;;;;;20.66;100.00;99723.59;5011571;28;20116;-86
2022/09/03 06:42:00;;;;;;;18.60;16.00;;;;;;;20.72;100.00;99718.31;5012486;28;20072;-86
2022/09/03 06:44:25;;;;;;;18.77;15.93;;;;;;;20.77;100.00;99726.63;5012044;28;20339;-86
2022/09/03 06:46:52;;;;;;;18.50;15.43;;;;;;;20.83;100.00;99725.00;5010966;28;20088;-86
2022/09/03 06:49:18;;;;;;;19.92;15.93;;;;;;;20.74;100.00;99728.81;4996724;28;20388;-86
2022/09/03 06:51:44;;;;;;;23.10;16.67;;;;;;;20.87;100.00;99730.81;5004640;28;20092;-86
2022/09/03 06:54:10;;;;;;;18.00;15.63;;;;;;;20.91;100.00;99727.59;5011681;28;20405;-86
2022/09/03 06:56:37;;;;;;;19.00;16.10;;;;;;;20.89;100.00;99729.63;5012274;28;20022;-86
2022/09/03 06:59:08;;;;;;;20.58;16.95;;;;;;;20.85;100.00;99728.31;5010711;28;20041;-86
2022/09/03 07:01:35;;;;;;;20.67;16.50;;;;;;;20.98;100.00;99722.31;5009810;28;20026;-85
2022/09/03 07:04:04;;;;;;;19.13;16.10;;;;;;;20.99;100.00;99729.28;5010929;28;20283;-86
2022/09/03 07:06:32;;;;;;;23.50;16.17;;;;;;;21.31;100.00;99730.66;5012117;28;20396;-86
2022/09/03 07:08:59;;;;;;;17.55;14.98;;;;;;;21.66;100.00;99733.44;5011762;28;20032;-86
2022/09/03 07:11:28;;;;;;;20.33;15.50;;;;;;;21.80;100.00;99731.75;5011972;28;20659;-86
2022/09/03 07:13:54;;;;;;;18.70;15.57;;;;;;;21.95;100.00;99734.31;5011647;28;20372;-86
2022/09/03 07:16:21;;;;;;;20.95;15.88;;;;;;;21.57;100.00;99734.63;5009914;28;20088;-86
2022/09/03 07:18:47;;;;;;;18.63;15.68;;;;;;;21.63;100.00;99731.19;5001321;28;20484;-86
2022/09/03 07:21:20;;;;;;;18.52;15.55;;;;;;;21.53;100.00;99736.84;5008937;28;20034;-86
2022/09/03 07:23:47;;;;;;;19.02;16.08;;;;;;;21.49;100.00;99745.44;5011620;28;20072;-87
2022/09/03 07:26:15;;;;;;;16.33;14.40;;;;;;;21.24;100.00;99748.44;5013088;28;20046;-86
2022/09/03 07:28:42;;;;;;;16.95;14.77;;;;;;;21.23;100.00;99754.81;5011714;28;20065;-86
2022/09/03 07:31:24;;;;;;;18.05;15.45;;;;;;;21.02;100.00;99757.47;5010706;28;20096;-87
2022/09/03 07:33:54;;;;;;;18.85;15.88;;;;;;;20.79;100.00;99758.41;5004647;28;20451;-86
2022/09/03 07:36:21;;;;;;;20.25;15.82;;;;;;;20.89;100.00;99760.78;5011800;28;20030;-86
2022/09/03 07:38:46;;;;;;;21.88;16.02;;;;;;;21.06;100.00;99761.41;5011372;28;20025;-86
2022/09/03 07:41:14;;;;;;;19.70;16.02;;;;;;;21.02;100.00;99760.94;5012008;28;20105;-87
2022/09/03 07:43:47;;;;;;;19.25;14.80;;;;;;;21.50;100.00;99760.44;5011921;28;20105;-86
2022/09/03 07:46:22;;;;;;;23.90;15.70;;;;;;;21.47;100.00;99753.66;5009512;28;20033;-86
2022/09/03 07:48:52;;;;;;;20.15;15.88;;;;;;;21.16;100.00;99759.25;5005357;28;20061;-87
2022/09/03 07:51:20;;;;;;;19.52;15.80;;;;;;;21.30;100.00;99762.88;4992252;28;20101;-87
2022/09/03 07:53:47;;;;;;;22.02;15.90;;;;;;;21.27;100.00;99758.75;5000797;28;20037;-86
2022/09/03 07:56:14;;;;;;;17.45;14.52;;;;;;;21.50;100.00;99755.09;5009954;28;20058;-87
2022/09/03 07:58:40;;;;;;;22.00;17.73;;;;;;;21.29;100.00;99766.59;5010819;28;20057;-87
2022/09/03 08:01:11;;;;;;;19.95;14.98;;;;;;;21.83;100.00;99763.41;5010856;28;20037;-87
2022/09/03 08:03:38;;;;;;;19.05;16.30;;;;;;;21.65;100.00;99757.72;5012252;28;20395;-87
2022/09/03 08:06:05;;;;;;;18.38;15.55;;;;;;;22.00;100.00;99761.28;5015045;28;20383;-87
2022/09/03 08:08:32;;;;;;;19.42;16.02;;;;;;;21.75;100.00;99751.00;5000034;28;20050;-87
2022/09/03 08:11:06;;;;;;;20.27;16.27;;;;;;;22.16;100.00;99752.16;5012425;28;20116;-87
2022/09/03 08:13:33;;;;;;;22.77;16.38;;;;;;;22.26;100.00;99736.59;5015066;28;20550;-87
2022/09/03 08:16:00;;;;;;;24.50;17.38;;;;;;;22.44;99.46;99749.44;5013992;28;20025;-87
2022/09/03 08:18:26;;;;;;;20.20;15.93;;;;;;;22.85;98.05;99763.81;5014548;28;20041;-87
2022/09/03 08:20:51;;;;;;;20.02;16.42;;;;;;;22.74;97.69;99760.69;5014822;28;20026;-87
2022/09/03 08:23:16;;;;;;;22.00;16.33;;;;;;;23.16;95.74;99763.34;5006475;28;20026;-87
2022/09/03 08:25:43;;;;;;;21.15;16.65;;;;;;;22.87;96.68;99759.13;5015046;28;20060;-87
2022/09/03 08:28:08;;;;;;;20.27;16.63;;;;;;;22.97;96.85;99757.72;5014211;28;20037;-88
2022/09/03 08:30:35;;;;;;;22.10;16.63;;;;;;;23.14;95.67;99760.03;5013903;28;20395;-87
2022/09/03 08:33:03;;;;;;;17.30;13.90;;;;;;;24.05;91.85;99764.91;5013261;28;20254;-87
2022/09/03 08:35:30;;;;;;;21.35;16.73;;;;;;;23.65;93.13;99762.19;5017320;28;20022;-87
2022/09/03 08:37:56;;;;;;;19.77;17.13;;;;;;;24.13;90.91;99770.03;5002885;28;20113;-87
2022/09/03 08:40:23;;;;;;;17.73;14.88;;;;;;;24.67;87.96;99775.31;5011437;28;20109;-87
2022/09/03 08:43:08;;;;;;;21.17;15.20;;;;;;;24.64;87.05;99767.66;5014568;28;20506;-88
2022/09/03 08:45:37;;;;;;;17.63;13.50;;;;;;;24.82;87.18;99773.19;5014834;28;20053;-87
2022/09/03 08:48:22;;;;;;;18.95;15.05;;;;;;;24.58;87.63;99771.22;5013431;28;20291;-87
2022/09/03 08:50:54;;;;;;;16.02;14.32;;;;;;;24.45;87.29;99767.50;5013482;28;20092;-87
2022/09/03 08:53:44;;;;;;;15.43;13.18;;;;;;;24.54;87.51;99776.97;5005048;28;20034;-87
2022/09/03 08:56:13;;;;;;;13.30;11.82;;;;;;;24.28;88.62;99772.47;5006516;28;20033;-87
2022/09/03 08:58:43;;;;;;;17.35;14.25;;;;;;;24.10;89.37;99783.84;5014427;28;20108;-87
2022/09/03 09:01:10;;;;;;;18.20;15.68;;;;;;;24.02;91.19;99777.91;5014466;28;20109;-87
2022/09/03 09:03:50;;;;;;;18.75;14.23;;;;;;;23.96;90.97;99782.22;5014602;28;20072;-87
2022/09/03 09:06:38;;;;;;;18.77;15.00;;;;;;;23.49;93.12;99779.47;5014189;28;20476;-87
2022/09/03 09:09:36;;;;;;;16.05;14.02;;;;;;;23.79;92.19;99783.66;4974773;28;20497;-87
2022/09/03 09:12:20;;;;;;;16.13;13.48;;;;;;;23.87;91.94;99780.78;5000978;28;20045;-87
2022/09/03 09:15:12;;;;;;;19.65;13.98;;;;;;;23.76;93.42;99785.69;4994613;28;20054;-87
2022/09/03 09:17:51;;;;;;;18.30;13.60;;;;;;;23.61;92.53;99798.47;5012574;28;20104;-87
2022/09/03 09:20:45;;;;;;;16.30;14.57;;;;;;;23.71;91.97;99785.47;5014054;28;20029;-87
2022/09/03 09:23:19;;;;;;;21.52;14.20;;;;;;;23.78;92.74;99792.75;5000075;28;20435;-85
2022/09/03 09:25:49;;;;;;;18.15;14.20;;;;;;;23.86;92.31;99789.88;5012792;28;20121;-86
2022/09/03 09:28:20;;;;;;;21.23;14.68;;;;;;;23.61;91.77;99785.06;5001360;28;20647;-85
2022/09/03 09:30:47;;;;;;;19.42;15.05;;;;;;;23.34;93.19;99794.91;5006400;28;20116;-88
2022/09/03 09:33:14;;;;;;;19.98;16.15;;;;;;;23.35;93.10;99797.38;5012703;28;20536;-87
2022/09/03 09:35:41;;;;;;;18.70;14.25;;;;;;;23.19;92.70;99783.56;5009558;28;20038;-87
2022/09/03 09:38:08;;;;;;;17.90;14.07;;;;;;;23.31;92.59;99798.81;5013230;28;20028;-87
2022/09/03 09:40:34;;;;;;;25.67;15.68;;;;;;;22.89;94.25;99799.91;5010377;28;20026;-87
2022/09/03 09:43:15;;;;;;;22.30;15.35;;;;;;;23.42;92.34;99788.53;4999665;28;20060;-87
2022/09/03 09:45:47;;;;;;;16.65;14.30;;;;;;;23.50;92.21;99796.38;5013506;28;20116;-87
2022/09/03 09:48:19;;;;;;;18.85;14.00;;;;;;;23.80;91.14;99785.34;5013155;28;20577;-87
2022/09/03 09:50:45;;;;;;;15.80;11.95;;;;;;;24.39;86.84;99792.50;5012054;28;20030;-87
2022/09/03 09:53:14;;;;;;;16.10;12.93;;;;;;;24.05;88.03;99790.88;5013522;28;20024;-87
2022/09/03 09:55:56;;;;;;;16.23;12.48;;;;;;;24.10;88.47;99791.91;5013184;28;20022;-87
2022/09/03 09:58:29;;;;;;;14.48;11.35;;;;;;;24.41;87.90;99779.69;5011225;28;20057;-87
2022/09/03 10:01:13;;;;;;;14.90;11.80;;;;;;;24.97;85.26;99780.16;5011268;28;20037;-87
2022/09/03 10:03:56;;;;;;;16.88;13.23;;;;;;;24.24;86.42;99783.84;5001121;28;20029;-88
2022/09/03 10:09:19;;;;;;;20.23;14.07;;;;;;;24.37;86.24;99781.16;5031466;28;20056;-87
2022/09/03 10:11:50;;;;;;;13.15;11.02;;;;;;;25.47;83.65;99781.09;5012012;28;20037;-87
2022/09/03 10:14:33;;;;;;;18.90;11.93;;;;;;;25.04;82.74;99778.22;5012756;28;20030;-87
2022/09/03 10:17:51;;;;;;;16.52;12.25;;;;;;;25.09;81.30;99773.06;5012025;28;20026;-87
2022/09/03 10:20:43;;;;;;;16.83;10.70;;;;;;;25.22;82.24;99772.22;4989780;28;20074;-87
2022/09/03 10:23:18;;;;;;;16.95;12.52;;;;;;;25.26;81.57;99766.19;5004248;28;20050;-86
2022/09/03 10:25:55;;;;;;;17.38;11.75;;;;;;;25.27;80.96;99773.19;5009980;28;20362;-87
2022/09/03 10:28:26;;;;;;;20.75;12.43;;;;;;;24.84;82.54;99765.75;5011641;28;20034;-87
2022/09/03 10:31:31;;;;;;;16.50;12.65;;;;;;;24.96;82.83;99767.75;5012235;28;20409;-87
2022/09/03 10:34:10;;;;;;;14.75;13.25;;;;;;;25.29;81.38;99768.41;5011179;28;20037;-87
2022/09/03 10:36:48;;;;;;;13.50;10.55;;;;;;;25.89;79.05;99767.16;5011984;28;20037;-87
2022/09/03 10:39:21;;;;;;;16.45;12.00;;;;;;;25.52;78.60;99769.72;5011975;28;20038;-88
2022/09/03 10:42:05;;;;;;;15.95;11.88;;;;;;;26.01;77.76;99764.63;5010859;28;20025;-87
2022/09/03 10:44:46;;;;;;;15.93;12.77;;;;;;;26.04;75.62;99764.97;5012050;28;20514;-87
2022/09/03 10:47:21;;;;;;;14.55;11.13;;;;;;;26.49;74.40;99756.66;5011193;28;20434;-88
2022/09/03 10:50:09;;;;;;;16.60;11.80;;;;;;;26.69;72.43;99761.81;5012273;28;20036;-87
2022/09/03 10:52:46;;;;;;;16.85;10.57;;;;;;;26.63;70.83;99762.72;5024898;28;20055;-86
2022/09/03 10:55:39;;;;;;;17.17;11.02;;;;;;;27.34;66.58;99754.16;4992789;28;20018;-87
2022/09/03 10:58:16;;;;;;;12.32;8.98;;;;;;;28.97;61.70;99756.22;5010788;28;20029;-87
2022/09/03 11:00:52;;;;;;;18.13;10.88;;;;;;;27.78;63.13;99754.69;5012302;28;20022;-87
2022/09/03 11:03:37;;;;;;;11.02;8.38;;;;;;;28.09;61.61;99754.38;5012138;28;20025;-88
2022/09/03 11:06:06;;;;;;;;;;;;;;;28.31;59.67;99748.38;5011239;28;20025;-87
2022/09/03 11:08:51;;;;;;;;;;;;;;;28.92;58.24;99751.53;4992839;28;19913;-87
2022/09/03 11:11:25;;;;;;;;;;;;;;;28.61;57.41;99756.31;4986779;28;19917;-87
2022/09/03 11:13:53;;;;;;;;;;;;;;;28.46;58.74;99750.59;4993102;28;19916;-88
2022/09/03 11:16:27;;;;;;;;;;;;;;;27.42;61.65;99759.22;4997871;28;19936;-88
2022/09/03 11:19:03;;;;;;;11.88;8.95;;;;;;;27.66;61.37;99752.81;5011804;28;19991;-87
2022/09/03 11:21:31;;;;;;;15.05;7.22;;;;;;;27.60;58.68;99756.44;5011606;28;20026;-88
2022/09/03 11:24:12;;;;;;;9.27;7.38;;;;;;;27.02;60.24;99757.06;5009701;28;20025;-87
2022/09/03 11:26:39;;;;;;;11.53;7.70;;;;;;;26.99;61.33;99762.91;5009922;28;20506;-92
2022/09/03 11:29:08;;;;;;;12.38;7.32;;;;;;;27.03;62.20;99762.22;5011761;28;20294;-87
2022/09/03 11:31:56;;;;;;;12.05;7.20;;;;;;;27.13;62.40;99766.25;5012496;28;20026;-87
2022/09/03 11:34:25;;;;;;;13.02;7.90;;;;;;;26.71;63.29;99759.72;5011896;28;20105;-87
2022/09/03 11:36:51;;;;;;;11.23;7.75;;;;;;;26.54;63.68;99763.22;5014875;28;20026;-87
2022/09/03 11:39:35;;;;;;;12.90;7.70;;;;;;;25.81;66.51;99757.50;5007192;28;20038;-91
2022/09/03 11:42:12;;;;;;;9.82;6.70;;;;;;;25.93;65.98;99768.41;5011823;28;20029;-87